METAR Data
IDs: Format: Raw Decoded Include TAF

Data at: 1806 UTC 24 Apr 2019

KMGJ 241754Z AUTO 30013G22KT 10SM CLR 14/03 A2981 RMK AO2 SLP092 T01440033 10150 20117 58000 TSNO